sensor_id;sensor_type;location;lat;lon;timestamp;P1;durP1;ratioP1;P2;durP2;ratioP2
15327;SDS011;7764;51.430;6.840;2022-08-19T00:01:34;11.13;;;8.68;;
15327;SDS011;7764;51.430;6.840;2022-08-19T00:04:04;11.63;;;8.43;;
15327;SDS011;7764;51.430;6.840;2022-08-19T00:06:36;12.18;;;8.63;;
15327;SDS011;7764;51.430;6.840;2022-08-19T00:09:05;10.20;;;8.43;;
15327;SDS011;7764;51.430;6.840;2022-08-19T00:11:34;16.30;;;10.00;;
15327;SDS011;7764;51.430;6.840;2022-08-19T00:14:04;10.55;;;8.70;;
15327;SDS011;7764;51.430;6.840;2022-08-19T00:16:33;9.85;;;8.32;;
15327;SDS011;7764;51.430;6.840;2022-08-19T00:19:00;13.80;;;9.48;;
15327;SDS011;7764;51.430;6.840;2022-08-19T00:21:27;10.55;;;8.70;;
15327;SDS011;7764;51.430;6.840;2022-08-19T00:23:54;9.63;;;8.45;;
15327;SDS011;7764;51.430;6.840;2022-08-19T00:26:23;10.73;;;8.52;;
15327;SDS011;7764;51.430;6.840;2022-08-19T00:28:50;11.13;;;8.70;;
15327;SDS011;7764;51.430;6.840;2022-08-19T00:31:18;10.70;;;8.50;;
15327;SDS011;7764;51.430;6.840;2022-08-19T00:33:45;11.68;;;8.73;;
15327;SDS011;7764;51.430;6.840;2022-08-19T00:36:15;12.45;;;8.32;;
15327;SDS011;7764;51.430;6.840;2022-08-19T00:38:43;12.38;;;8.98;;
15327;SDS011;7764;51.430;6.840;2022-08-19T00:41:12;10.65;;;8.80;;
15327;SDS011;7764;51.430;6.840;2022-08-19T00:43:40;12.55;;;8.90;;
15327;SDS011;7764;51.430;6.840;2022-08-19T00:46:07;11.95;;;8.95;;
15327;SDS011;7764;51.430;6.840;2022-08-19T00:48:35;11.82;;;8.85;;
15327;SDS011;7764;51.430;6.840;2022-08-19T00:51:03;11.55;;;8.68;;
15327;SDS011;7764;51.430;6.840;2022-08-19T00:53:31;11.05;;;8.90;;
15327;SDS011;7764;51.430;6.840;2022-08-19T00:55:59;10.30;;;8.55;;
15327;SDS011;7764;51.430;6.840;2022-08-19T00:58:30;11.98;;;9.15;;
15327;SDS011;7764;51.430;6.840;2022-08-19T01:00:59;10.57;;;9.48;;
15327;SDS011;7764;51.430;6.840;2022-08-19T01:03:26;11.35;;;9.10;;
15327;SDS011;7764;51.430;6.840;2022-08-19T01:05:55;12.45;;;9.32;;
15327;SDS011;7764;51.430;6.840;2022-08-19T01:08:22;12.18;;;9.68;;
15327;SDS011;7764;51.430;6.840;2022-08-19T01:10:50;11.23;;;9.18;;
15327;SDS011;7764;51.430;6.840;2022-08-19T01:13:20;11.80;;;9.63;;
15327;SDS011;7764;51.430;6.840;2022-08-19T01:15:50;11.90;;;10.00;;
15327;SDS011;7764;51.430;6.840;2022-08-19T01:18:21;11.07;;;9.65;;
15327;SDS011;7764;51.430;6.840;2022-08-19T01:20:48;12.38;;;9.82;;
15327;SDS011;7764;51.430;6.840;2022-08-19T01:23:16;12.38;;;9.60;;
15327;SDS011;7764;51.430;6.840;2022-08-19T01:25:44;10.60;;;9.50;;
15327;SDS011;7764;51.430;6.840;2022-08-19T01:28:16;12.60;;;9.07;;
15327;SDS011;7764;51.430;6.840;2022-08-19T01:30:46;11.18;;;9.30;;
15327;SDS011;7764;51.430;6.840;2022-08-19T01:33:13;11.93;;;9.15;;
15327;SDS011;7764;51.430;6.840;2022-08-19T01:35:40;11.90;;;10.10;;
15327;SDS011;7764;51.430;6.840;2022-08-19T01:38:09;11.13;;;9.63;;
15327;SDS011;7764;51.430;6.840;2022-08-19T01:40:46;11.27;;;9.68;;
15327;SDS011;7764;51.430;6.840;2022-08-19T01:43:13;11.32;;;9.05;;
15327;SDS011;7764;51.430;6.840;2022-08-19T01:45:40;15.40;;;9.85;;
15327;SDS011;7764;51.430;6.840;2022-08-19T01:48:07;10.82;;;9.40;;
15327;SDS011;7764;51.430;6.840;2022-08-19T01:50:35;10.93;;;9.48;;
15327;SDS011;7764;51.430;6.840;2022-08-19T01:53:04;11.38;;;9.38;;
15327;SDS011;7764;51.430;6.840;2022-08-19T01:55:32;13.88;;;10.05;;
15327;SDS011;7764;51.430;6.840;2022-08-19T01:58:02;10.75;;;9.50;;
15327;SDS011;7764;51.430;6.840;2022-08-19T02:00:32;11.85;;;9.77;;
15327;SDS011;7764;51.430;6.840;2022-08-19T02:02:59;12.95;;;9.45;;
15327;SDS011;7764;51.430;6.840;2022-08-19T02:05:27;12.25;;;9.05;;
15327;SDS011;7764;51.430;6.840;2022-08-19T02:07:55;11.75;;;9.70;;
15327;SDS011;7764;51.430;6.840;2022-08-19T02:10:22;11.80;;;9.52;;
15327;SDS011;7764;51.430;6.840;2022-08-19T02:12:49;13.05;;;9.50;;
15327;SDS011;7764;51.430;6.840;2022-08-19T02:15:18;11.88;;;9.70;;
15327;SDS011;7764;51.430;6.840;2022-08-19T02:17:47;11.02;;;9.30;;
15327;SDS011;7764;51.430;6.840;2022-08-19T02:20:14;15.82;;;9.88;;
15327;SDS011;7764;51.430;6.840;2022-08-19T02:22:41;12.60;;;10.55;;
15327;SDS011;7764;51.430;6.840;2022-08-19T02:25:09;12.05;;;10.73;;
15327;SDS011;7764;51.430;6.840;2022-08-19T02:27:36;11.57;;;9.80;;
15327;SDS011;7764;51.430;6.840;2022-08-19T02:30:04;12.82;;;10.45;;
15327;SDS011;7764;51.430;6.840;2022-08-19T02:32:34;12.75;;;10.50;;
15327;SDS011;7764;51.430;6.840;2022-08-19T02:35:01;13.07;;;10.10;;
15327;SDS011;7764;51.430;6.840;2022-08-19T02:37:28;12.85;;;10.48;;
15327;SDS011;7764;51.430;6.840;2022-08-19T02:40:13;14.68;;;10.77;;
15327;SDS011;7764;51.430;6.840;2022-08-19T02:42:40;10.77;;;9.68;;
15327;SDS011;7764;51.430;6.840;2022-08-19T02:45:08;15.93;;;9.82;;
15327;SDS011;7764;51.430;6.840;2022-08-19T02:47:36;14.05;;;11.35;;
15327;SDS011;7764;51.430;6.840;2022-08-19T02:50:04;12.32;;;9.85;;
15327;SDS011;7764;51.430;6.840;2022-08-19T02:52:32;11.95;;;9.73;;
15327;SDS011;7764;51.430;6.840;2022-08-19T02:55:00;14.45;;;10.35;;
15327;SDS011;7764;51.430;6.840;2022-08-19T02:57:27;14.38;;;12.63;;
15327;SDS011;7764;51.430;6.840;2022-08-19T02:59:56;11.35;;;9.85;;
15327;SDS011;7764;51.430;6.840;2022-08-19T03:02:23;13.15;;;10.60;;
15327;SDS011;7764;51.430;6.840;2022-08-19T03:04:51;11.32;;;9.95;;
15327;SDS011;7764;51.430;6.840;2022-08-19T03:07:18;13.90;;;10.38;;
15327;SDS011;7764;51.430;6.840;2022-08-19T03:09:45;17.63;;;13.77;;
15327;SDS011;7764;51.430;6.840;2022-08-19T03:12:12;11.80;;;10.57;;
15327;SDS011;7764;51.430;6.840;2022-08-19T03:14:39;13.35;;;10.13;;
15327;SDS011;7764;51.430;6.840;2022-08-19T03:17:06;14.05;;;11.18;;
15327;SDS011;7764;51.430;6.840;2022-08-19T03:19:33;17.00;;;14.40;;
15327;SDS011;7764;51.430;6.840;2022-08-19T03:22:01;13.70;;;11.30;;
15327;SDS011;7764;51.430;6.840;2022-08-19T03:24:29;13.52;;;10.70;;
15327;SDS011;7764;51.430;6.840;2022-08-19T03:26:57;13.60;;;11.13;;
15327;SDS011;7764;51.430;6.840;2022-08-19T03:29:24;17.65;;;11.32;;
15327;SDS011;7764;51.430;6.840;2022-08-19T03:31:53;13.85;;;11.45;;
15327;SDS011;7764;51.430;6.840;2022-08-19T03:34:21;12.38;;;10.45;;
15327;SDS011;7764;51.430;6.840;2022-08-19T03:36:51;12.82;;;10.82;;
15327;SDS011;7764;51.430;6.840;2022-08-19T03:39:20;13.02;;;10.75;;
15327;SDS011;7764;51.430;6.840;2022-08-19T03:41:48;15.70;;;10.77;;
15327;SDS011;7764;51.430;6.840;2022-08-19T03:44:18;12.23;;;10.85;;
15327;SDS011;7764;51.430;6.840;2022-08-19T03:46:47;11.55;;;10.27;;
15327;SDS011;7764;51.430;6.840;2022-08-19T03:49:16;13.40;;;10.85;;
15327;SDS011;7764;51.430;6.840;2022-08-19T03:51:44;13.82;;;10.95;;
15327;SDS011;7764;51.430;6.840;2022-08-19T03:54:13;12.05;;;10.15;;
15327;SDS011;7764;51.430;6.840;2022-08-19T03:56:43;12.57;;;10.68;;
15327;SDS011;7764;51.430;6.840;2022-08-19T03:59:13;13.32;;;11.18;;
15327;SDS011;7764;51.430;6.840;2022-08-19T04:01:42;23.70;;;19.50;;
15327;SDS011;7764;51.430;6.840;2022-08-19T04:04:10;19.40;;;15.00;;
15327;SDS011;7764;51.430;6.840;2022-08-19T04:06:38;32.38;;;27.38;;
15327;SDS011;7764;51.430;6.840;2022-08-19T04:09:06;14.18;;;12.43;;
15327;SDS011;7764;51.430;6.840;2022-08-19T04:11:36;15.45;;;11.25;;
15327;SDS011;7764;51.430;6.840;2022-08-19T04:14:08;13.55;;;10.80;;
15327;SDS011;7764;51.430;6.840;2022-08-19T04:16:35;15.68;;;11.68;;
15327;SDS011;7764;51.430;6.840;2022-08-19T04:19:03;14.20;;;11.05;;
15327;SDS011;7764;51.430;6.840;2022-08-19T04:21:31;13.23;;;11.30;;
15327;SDS011;7764;51.430;6.840;2022-08-19T04:23:58;13.07;;;11.15;;
15327;SDS011;7764;51.430;6.840;2022-08-19T04:26:26;27.65;;;12.93;;
15327;SDS011;7764;51.430;6.840;2022-08-19T04:28:57;19.02;;;12.07;;
15327;SDS011;7764;51.430;6.840;2022-08-19T04:31:27;14.88;;;11.75;;
15327;SDS011;7764;51.430;6.840;2022-08-19T04:33:56;14.30;;;12.40;;
15327;SDS011;7764;51.430;6.840;2022-08-19T04:36:25;16.38;;;13.32;;
15327;SDS011;7764;51.430;6.840;2022-08-19T04:38:55;28.67;;;14.65;;
15327;SDS011;7764;51.430;6.840;2022-08-19T04:41:23;20.92;;;14.40;;
15327;SDS011;7764;51.430;6.840;2022-08-19T04:44:08;17.02;;;13.77;;
15327;SDS011;7764;51.430;6.840;2022-08-19T04:46:36;17.45;;;14.00;;
15327;SDS011;7764;51.430;6.840;2022-08-19T04:49:04;16.15;;;13.88;;
15327;SDS011;7764;51.430;6.840;2022-08-19T04:51:33;16.63;;;13.45;;
15327;SDS011;7764;51.430;6.840;2022-08-19T04:54:00;17.38;;;13.75;;
15327;SDS011;7764;51.430;6.840;2022-08-19T04:56:28;18.63;;;14.98;;
15327;SDS011;7764;51.430;6.840;2022-08-19T04:58:55;17.70;;;15.15;;
15327;SDS011;7764;51.430;6.840;2022-08-19T05:01:23;21.05;;;15.70;;
15327;SDS011;7764;51.430;6.840;2022-08-19T05:03:54;26.73;;;20.65;;
15327;SDS011;7764;51.430;6.840;2022-08-19T05:06:22;19.95;;;16.63;;
15327;SDS011;7764;51.430;6.840;2022-08-19T05:08:50;22.23;;;17.17;;
15327;SDS011;7764;51.430;6.840;2022-08-19T05:11:18;22.05;;;16.60;;
15327;SDS011;7764;51.430;6.840;2022-08-19T05:13:47;23.45;;;18.55;;
15327;SDS011;7764;51.430;6.840;2022-08-19T05:16:15;29.48;;;24.33;;
15327;SDS011;7764;51.430;6.840;2022-08-19T05:18:44;21.63;;;18.38;;
15327;SDS011;7764;51.430;6.840;2022-08-19T05:21:30;22.50;;;18.35;;
15327;SDS011;7764;51.430;6.840;2022-08-19T05:24:15;23.95;;;19.33;;
15327;SDS011;7764;51.430;6.840;2022-08-19T05:26:44;25.10;;;19.42;;
15327;SDS011;7764;51.430;6.840;2022-08-19T05:29:12;26.98;;;20.05;;
15327;SDS011;7764;51.430;6.840;2022-08-19T05:31:41;25.02;;;19.58;;
15327;SDS011;7764;51.430;6.840;2022-08-19T05:34:08;25.88;;;19.67;;
15327;SDS011;7764;51.430;6.840;2022-08-19T05:36:37;23.10;;;19.05;;
15327;SDS011;7764;51.430;6.840;2022-08-19T05:39:07;26.10;;;18.35;;
15327;SDS011;7764;51.430;6.840;2022-08-19T05:41:37;23.05;;;18.38;;
15327;SDS011;7764;51.430;6.840;2022-08-19T05:44:08;23.38;;;20.73;;
15327;SDS011;7764;51.430;6.840;2022-08-19T05:46:35;27.40;;;22.50;;
15327;SDS011;7764;51.430;6.840;2022-08-19T05:49:03;26.55;;;21.52;;
15327;SDS011;7764;51.430;6.840;2022-08-19T05:51:31;25.33;;;20.25;;
15327;SDS011;7764;51.430;6.840;2022-08-19T05:54:00;26.15;;;19.92;;
15327;SDS011;7764;51.430;6.840;2022-08-19T05:56:28;22.17;;;18.95;;
15327;SDS011;7764;51.430;6.840;2022-08-19T05:58:55;32.45;;;21.98;;
15327;SDS011;7764;51.430;6.840;2022-08-19T06:01:24;25.83;;;22.27;;
15327;SDS011;7764;51.430;6.840;2022-08-19T06:03:52;24.65;;;21.98;;
15327;SDS011;7764;51.430;6.840;2022-08-19T06:06:19;31.58;;;26.60;;
15327;SDS011;7764;51.430;6.840;2022-08-19T06:08:47;30.20;;;26.85;;
15327;SDS011;7764;51.430;6.840;2022-08-19T06:11:18;33.40;;;27.65;;
15327;SDS011;7764;51.430;6.840;2022-08-19T06:13:48;31.63;;;28.20;;
15327;SDS011;7764;51.430;6.840;2022-08-19T06:16:17;35.20;;;29.75;;
15327;SDS011;7764;51.430;6.840;2022-08-19T06:18:47;32.42;;;28.98;;
15327;SDS011;7764;51.430;6.840;2022-08-19T06:21:16;38.38;;;30.35;;
15327;SDS011;7764;51.430;6.840;2022-08-19T06:23:44;36.60;;;32.60;;
15327;SDS011;7764;51.430;6.840;2022-08-19T06:26:12;36.15;;;31.60;;
15327;SDS011;7764;51.430;6.840;2022-08-19T06:28:41;36.45;;;31.92;;
15327;SDS011;7764;51.430;6.840;2022-08-19T06:31:11;39.38;;;32.13;;
15327;SDS011;7764;51.430;6.840;2022-08-19T06:33:39;36.50;;;31.70;;
15327;SDS011;7764;51.430;6.840;2022-08-19T06:36:07;38.63;;;32.45;;
15327;SDS011;7764;51.430;6.840;2022-08-19T06:38:41;34.63;;;30.95;;
15327;SDS011;7764;51.430;6.840;2022-08-19T06:41:08;33.40;;;29.58;;
15327;SDS011;7764;51.430;6.840;2022-08-19T06:43:35;32.63;;;29.33;;
15327;SDS011;7764;51.430;6.840;2022-08-19T06:46:04;30.70;;;27.48;;
15327;SDS011;7764;51.430;6.840;2022-08-19T06:48:36;39.45;;;31.88;;
15327;SDS011;7764;51.430;6.840;2022-08-19T06:51:03;29.55;;;26.35;;
15327;SDS011;7764;51.430;6.840;2022-08-19T06:53:30;30.67;;;27.30;;
15327;SDS011;7764;51.430;6.840;2022-08-19T06:55:57;31.35;;;26.90;;
15327;SDS011;7764;51.430;6.840;2022-08-19T06:58:27;29.85;;;26.65;;
15327;SDS011;7764;51.430;6.840;2022-08-19T07:00:57;32.03;;;28.60;;
15327;SDS011;7764;51.430;6.840;2022-08-19T07:03:27;31.90;;;28.65;;
15327;SDS011;7764;51.430;6.840;2022-08-19T07:05:55;31.65;;;27.42;;
15327;SDS011;7764;51.430;6.840;2022-08-19T07:08:24;31.77;;;28.50;;
15327;SDS011;7764;51.430;6.840;2022-08-19T07:10:52;33.35;;;29.85;;
15327;SDS011;7764;51.430;6.840;2022-08-19T07:13:22;33.70;;;30.17;;
15327;SDS011;7764;51.430;6.840;2022-08-19T07:15:49;33.92;;;30.38;;
15327;SDS011;7764;51.430;6.840;2022-08-19T07:18:17;34.92;;;31.17;;
15327;SDS011;7764;51.430;6.840;2022-08-19T07:20:46;35.35;;;31.52;;
15327;SDS011;7764;51.430;6.840;2022-08-19T07:23:13;35.35;;;31.65;;
15327;SDS011;7764;51.430;6.840;2022-08-19T07:25:40;35.53;;;31.80;;
15327;SDS011;7764;51.430;6.840;2022-08-19T07:28:08;35.78;;;32.08;;
15327;SDS011;7764;51.430;6.840;2022-08-19T07:30:38;33.95;;;30.45;;
15327;SDS011;7764;51.430;6.840;2022-08-19T07:33:05;34.63;;;30.95;;
15327;SDS011;7764;51.430;6.840;2022-08-19T07:35:32;32.95;;;28.25;;
15327;SDS011;7764;51.430;6.840;2022-08-19T07:38:01;33.38;;;30.00;;
15327;SDS011;7764;51.430;6.840;2022-08-19T07:40:31;34.95;;;31.33;;
15327;SDS011;7764;51.430;6.840;2022-08-19T07:42:58;33.72;;;30.20;;
15327;SDS011;7764;51.430;6.840;2022-08-19T07:45:25;32.72;;;29.23;;
15327;SDS011;7764;51.430;6.840;2022-08-19T07:47:52;31.60;;;28.30;;
15327;SDS011;7764;51.430;6.840;2022-08-19T07:50:20;32.67;;;28.08;;
15327;SDS011;7764;51.430;6.840;2022-08-19T07:52:49;31.88;;;28.00;;
15327;SDS011;7764;51.430;6.840;2022-08-19T07:55:19;28.48;;;25.48;;
15327;SDS011;7764;51.430;6.840;2022-08-19T07:57:48;29.88;;;26.67;;
15327;SDS011;7764;51.430;6.840;2022-08-19T08:00:17;43.58;;;27.77;;
15327;SDS011;7764;51.430;6.840;2022-08-19T08:02:44;28.98;;;25.58;;
15327;SDS011;7764;51.430;6.840;2022-08-19T08:05:11;26.27;;;23.42;;
15327;SDS011;7764;51.430;6.840;2022-08-19T08:07:55;29.88;;;26.23;;
15327;SDS011;7764;51.430;6.840;2022-08-19T08:10:41;30.90;;;27.58;;
15327;SDS011;7764;51.430;6.840;2022-08-19T08:13:08;39.95;;;34.40;;
15327;SDS011;7764;51.430;6.840;2022-08-19T08:15:35;27.83;;;24.90;;
15327;SDS011;7764;51.430;6.840;2022-08-19T08:18:04;30.98;;;25.25;;
15327;SDS011;7764;51.430;6.840;2022-08-19T08:20:31;29.52;;;25.65;;
15327;SDS011;7764;51.430;6.840;2022-08-19T08:22:58;28.00;;;24.67;;
15327;SDS011;7764;51.430;6.840;2022-08-19T08:25:44;29.80;;;23.33;;
15327;SDS011;7764;51.430;6.840;2022-08-19T08:28:13;28.95;;;25.05;;
15327;SDS011;7764;51.430;6.840;2022-08-19T08:30:40;26.67;;;22.50;;
15327;SDS011;7764;51.430;6.840;2022-08-19T08:33:08;25.70;;;21.10;;
15327;SDS011;7764;51.430;6.840;2022-08-19T08:35:35;21.58;;;19.05;;
15327;SDS011;7764;51.430;6.840;2022-08-19T08:38:03;22.70;;;20.42;;
15327;SDS011;7764;51.430;6.840;2022-08-19T08:40:33;23.75;;;19.92;;
15327;SDS011;7764;51.430;6.840;2022-08-19T08:43:08;22.60;;;20.23;;
15327;SDS011;7764;51.430;6.840;2022-08-19T08:45:41;27.70;;;20.98;;
15327;SDS011;7764;51.430;6.840;2022-08-19T08:48:13;22.33;;;18.67;;
15327;SDS011;7764;51.430;6.840;2022-08-19T08:50:46;21.13;;;18.83;;
15327;SDS011;7764;51.430;6.840;2022-08-19T08:53:16;24.10;;;16.90;;
15327;SDS011;7764;51.430;6.840;2022-08-19T08:55:45;19.05;;;15.55;;
15327;SDS011;7764;51.430;6.840;2022-08-19T08:58:15;18.80;;;15.77;;
15327;SDS011;7764;51.430;6.840;2022-08-19T09:00:52;22.27;;;17.30;;
15327;SDS011;7764;51.430;6.840;2022-08-19T09:03:20;21.58;;;16.85;;
15327;SDS011;7764;51.430;6.840;2022-08-19T09:05:50;20.83;;;16.50;;
15327;SDS011;7764;51.430;6.840;2022-08-19T09:08:27;22.17;;;15.57;;
15327;SDS011;7764;51.430;6.840;2022-08-19T09:11:03;18.77;;;14.23;;
15327;SDS011;7764;51.430;6.840;2022-08-19T09:13:36;21.08;;;16.63;;
15327;SDS011;7764;51.430;6.840;2022-08-19T09:16:19;20.02;;;16.58;;
15327;SDS011;7764;51.430;6.840;2022-08-19T09:18:49;18.45;;;14.55;;
15327;SDS011;7764;51.430;6.840;2022-08-19T09:21:19;18.27;;;15.20;;
15327;SDS011;7764;51.430;6.840;2022-08-19T09:23:47;21.00;;;15.55;;
15327;SDS011;7764;51.430;6.840;2022-08-19T09:26:15;20.95;;;15.77;;
15327;SDS011;7764;51.430;6.840;2022-08-19T09:28:47;18.67;;;14.90;;
15327;SDS011;7764;51.430;6.840;2022-08-19T09:31:18;18.35;;;14.98;;
15327;SDS011;7764;51.430;6.840;2022-08-19T09:33:47;17.05;;;14.75;;
15327;SDS011;7764;51.430;6.840;2022-08-19T09:36:16;22.00;;;18.15;;
15327;SDS011;7764;51.430;6.840;2022-08-19T09:38:44;24.83;;;20.52;;
15327;SDS011;7764;51.430;6.840;2022-08-19T09:41:13;22.80;;;19.85;;
15327;SDS011;7764;51.430;6.840;2022-08-19T09:43:41;25.95;;;19.02;;
15327;SDS011;7764;51.430;6.840;2022-08-19T09:46:11;22.08;;;19.38;;
15327;SDS011;7764;51.430;6.840;2022-08-19T09:48:41;22.85;;;18.60;;
15327;SDS011;7764;51.430;6.840;2022-08-19T09:51:10;25.40;;;20.95;;
15327;SDS011;7764;51.430;6.840;2022-08-19T09:53:40;25.92;;;22.63;;
15327;SDS011;7764;51.430;6.840;2022-08-19T09:56:08;28.02;;;23.15;;
15327;SDS011;7764;51.430;6.840;2022-08-19T09:58:36;28.67;;;23.20;;
15327;SDS011;7764;51.430;6.840;2022-08-19T10:01:04;26.35;;;21.63;;
15327;SDS011;7764;51.430;6.840;2022-08-19T10:03:34;38.80;;;33.55;;
15327;SDS011;7764;51.430;6.840;2022-08-19T10:06:02;27.00;;;21.55;;
15327;SDS011;7764;51.430;6.840;2022-08-19T10:08:31;29.25;;;23.80;;
15327;SDS011;7764;51.430;6.840;2022-08-19T10:11:00;27.23;;;21.50;;
15327;SDS011;7764;51.430;6.840;2022-08-19T10:13:29;25.23;;;21.20;;
15327;SDS011;7764;51.430;6.840;2022-08-19T10:16:02;28.85;;;23.38;;
15327;SDS011;7764;51.430;6.840;2022-08-19T10:18:30;29.40;;;23.42;;
15327;SDS011;7764;51.430;6.840;2022-08-19T10:21:03;27.33;;;24.35;;
15327;SDS011;7764;51.430;6.840;2022-08-19T10:23:34;26.00;;;22.77;;
15327;SDS011;7764;51.430;6.840;2022-08-19T10:26:03;25.30;;;22.60;;
15327;SDS011;7764;51.430;6.840;2022-08-19T10:28:31;26.88;;;21.85;;
15327;SDS011;7764;51.430;6.840;2022-08-19T10:31:02;27.02;;;23.35;;
15327;SDS011;7764;51.430;6.840;2022-08-19T10:33:31;26.30;;;22.75;;
15327;SDS011;7764;51.430;6.840;2022-08-19T10:36:00;26.05;;;21.13;;
15327;SDS011;7764;51.430;6.840;2022-08-19T10:38:29;25.27;;;21.52;;
15327;SDS011;7764;51.430;6.840;2022-08-19T10:40:56;26.42;;;21.75;;
15327;SDS011;7764;51.430;6.840;2022-08-19T10:43:23;23.15;;;20.65;;
15327;SDS011;7764;51.430;6.840;2022-08-19T10:45:53;24.83;;;20.52;;
15327;SDS011;7764;51.430;6.840;2022-08-19T10:48:24;24.42;;;20.30;;
15327;SDS011;7764;51.430;6.840;2022-08-19T10:50:51;29.75;;;25.65;;
15327;SDS011;7764;51.430;6.840;2022-08-19T10:53:37;22.83;;;20.02;;
15327;SDS011;7764;51.430;6.840;2022-08-19T10:56:04;22.40;;;17.85;;
15327;SDS011;7764;51.430;6.840;2022-08-19T10:58:49;20.90;;;17.85;;
15327;SDS011;7764;51.430;6.840;2022-08-19T11:01:15;20.45;;;17.10;;
15327;SDS011;7764;51.430;6.840;2022-08-19T11:03:42;18.35;;;15.77;;
15327;SDS011;7764;51.430;6.840;2022-08-19T11:06:10;20.13;;;16.80;;
15327;SDS011;7764;51.430;6.840;2022-08-19T11:08:39;22.23;;;18.58;;
15327;SDS011;7764;51.430;6.840;2022-08-19T11:11:07;22.55;;;17.25;;
15327;SDS011;7764;51.430;6.840;2022-08-19T11:13:36;19.15;;;16.58;;
15327;SDS011;7764;51.430;6.840;2022-08-19T11:16:05;18.52;;;15.60;;
15327;SDS011;7764;51.430;6.840;2022-08-19T11:18:35;19.08;;;15.27;;
15327;SDS011;7764;51.430;6.840;2022-08-19T11:21:11;18.30;;;14.55;;
15327;SDS011;7764;51.430;6.840;2022-08-19T11:23:43;20.65;;;17.80;;
15327;SDS011;7764;51.430;6.840;2022-08-19T11:26:12;16.70;;;13.40;;
15327;SDS011;7764;51.430;6.840;2022-08-19T11:28:39;15.75;;;13.98;;
15327;SDS011;7764;51.430;6.840;2022-08-19T11:31:09;16.42;;;12.88;;
15327;SDS011;7764;51.430;6.840;2022-08-19T11:33:37;18.17;;;12.55;;
15327;SDS011;7764;51.430;6.840;2022-08-19T11:36:04;15.90;;;13.10;;
15327;SDS011;7764;51.430;6.840;2022-08-19T11:38:32;15.27;;;13.05;;
15327;SDS011;7764;51.430;6.840;2022-08-19T11:41:02;15.90;;;12.65;;
15327;SDS011;7764;51.430;6.840;2022-08-19T11:43:31;13.98;;;11.50;;
15327;SDS011;7764;51.430;6.840;2022-08-19T11:45:58;14.27;;;12.65;;
15327;SDS011;7764;51.430;6.840;2022-08-19T11:48:25;18.52;;;10.82;;
15327;SDS011;7764;51.430;6.840;2022-08-19T11:50:52;13.45;;;9.38;;
15327;SDS011;7764;51.430;6.840;2022-08-19T11:53:21;11.00;;;8.82;;
15327;SDS011;7764;51.430;6.840;2022-08-19T11:55:48;9.27;;;7.95;;
15327;SDS011;7764;51.430;6.840;2022-08-19T11:58:17;10.15;;;7.55;;
15327;SDS011;7764;51.430;6.840;2022-08-19T12:00:44;14.00;;;11.55;;
15327;SDS011;7764;51.430;6.840;2022-08-19T12:03:12;12.65;;;10.70;;
15327;SDS011;7764;51.430;6.840;2022-08-19T12:05:40;15.30;;;12.27;;
15327;SDS011;7764;51.430;6.840;2022-08-19T12:08:07;12.88;;;10.20;;
15327;SDS011;7764;51.430;6.840;2022-08-19T12:10:36;12.88;;;9.77;;
15327;SDS011;7764;51.430;6.840;2022-08-19T12:13:03;11.18;;;9.95;;
15327;SDS011;7764;51.430;6.840;2022-08-19T12:15:36;13.82;;;9.70;;
15327;SDS011;7764;51.430;6.840;2022-08-19T12:18:05;12.00;;;9.52;;
15327;SDS011;7764;51.430;6.840;2022-08-19T12:20:33;10.68;;;9.07;;
15327;SDS011;7764;51.430;6.840;2022-08-19T12:23:01;12.05;;;7.57;;
15327;SDS011;7764;51.430;6.840;2022-08-19T12:25:28;9.02;;;6.82;;
15327;SDS011;7764;51.430;6.840;2022-08-19T12:27:55;14.25;;;9.55;;
15327;SDS011;7764;51.430;6.840;2022-08-19T12:30:23;8.00;;;6.97;;
15327;SDS011;7764;51.430;6.840;2022-08-19T12:32:51;8.80;;;6.65;;
15327;SDS011;7764;51.430;6.840;2022-08-19T12:35:18;10.55;;;7.80;;
15327;SDS011;7764;51.430;6.840;2022-08-19T12:37:46;10.85;;;8.20;;
15327;SDS011;7764;51.430;6.840;2022-08-19T12:40:15;8.57;;;7.45;;
15327;SDS011;7764;51.430;6.840;2022-08-19T12:42:42;8.32;;;6.80;;
15327;SDS011;7764;51.430;6.840;2022-08-19T12:45:10;7.95;;;6.63;;
15327;SDS011;7764;51.430;6.840;2022-08-19T12:47:39;8.70;;;6.45;;
15327;SDS011;7764;51.430;6.840;2022-08-19T12:50:08;9.93;;;6.93;;
15327;SDS011;7764;51.430;6.840;2022-08-19T12:52:35;11.88;;;8.05;;
15327;SDS011;7764;51.430;6.840;2022-08-19T12:55:03;13.38;;;8.13;;
15327;SDS011;7764;51.430;6.840;2022-08-19T12:57:32;9.30;;;6.38;;
15327;SDS011;7764;51.430;6.840;2022-08-19T13:00:01;11.38;;;8.10;;
15327;SDS011;7764;51.430;6.840;2022-08-19T13:02:33;9.50;;;7.28;;
15327;SDS011;7764;51.430;6.840;2022-08-19T13:05:01;11.18;;;8.80;;
15327;SDS011;7764;51.430;6.840;2022-08-19T13:07:29;10.23;;;7.35;;
15327;SDS011;7764;51.430;6.840;2022-08-19T13:09:57;8.10;;;6.68;;
15327;SDS011;7764;51.430;6.840;2022-08-19T13:12:25;9.52;;;6.70;;
15327;SDS011;7764;51.430;6.840;2022-08-19T13:14:52;8.20;;;6.45;;
15327;SDS011;7764;51.430;6.840;2022-08-19T13:17:20;8.57;;;6.25;;
15327;SDS011;7764;51.430;6.840;2022-08-19T13:19:48;7.20;;;5.57;;
15327;SDS011;7764;51.430;6.840;2022-08-19T13:22:15;7.45;;;5.45;;
15327;SDS011;7764;51.430;6.840;2022-08-19T13:24:43;8.27;;;5.55;;
15327;SDS011;7764;51.430;6.840;2022-08-19T13:27:10;6.97;;;5.20;;
15327;SDS011;7764;51.430;6.840;2022-08-19T13:29:39;21.23;;;17.20;;
15327;SDS011;7764;51.430;6.840;2022-08-19T13:32:23;10.23;;;7.18;;
15327;SDS011;7764;51.430;6.840;2022-08-19T13:35:07;11.60;;;7.82;;
15327;SDS011;7764;51.430;6.840;2022-08-19T13:37:35;11.05;;;6.30;;
15327;SDS011;7764;51.430;6.840;2022-08-19T13:40:10;12.43;;;6.60;;
15327;SDS011;7764;51.430;6.840;2022-08-19T13:42:40;8.98;;;6.38;;
15327;SDS011;7764;51.430;6.840;2022-08-19T13:45:08;9.30;;;5.90;;
15327;SDS011;7764;51.430;6.840;2022-08-19T13:47:35;8.88;;;6.22;;
15327;SDS011;7764;51.430;6.840;2022-08-19T13:50:09;9.43;;;6.55;;
15327;SDS011;7764;51.430;6.840;2022-08-19T13:52:37;10.30;;;6.05;;
15327;SDS011;7764;51.430;6.840;2022-08-19T13:55:04;9.25;;;6.32;;
15327;SDS011;7764;51.430;6.840;2022-08-19T13:57:33;9.23;;;6.22;;
15327;SDS011;7764;51.430;6.840;2022-08-19T14:00:05;9.93;;;6.80;;
15327;SDS011;7764;51.430;6.840;2022-08-19T14:02:35;8.23;;;6.20;;
15327;SDS011;7764;51.430;6.840;2022-08-19T14:05:03;9.95;;;6.55;;
15327;SDS011;7764;51.430;6.840;2022-08-19T14:07:30;9.30;;;7.50;;
15327;SDS011;7764;51.430;6.840;2022-08-19T14:09:57;9.23;;;7.10;;
15327;SDS011;7764;51.430;6.840;2022-08-19T14:12:25;8.57;;;7.25;;
15327;SDS011;7764;51.430;6.840;2022-08-19T14:14:53;10.25;;;6.55;;
15327;SDS011;7764;51.430;6.840;2022-08-19T14:17:20;9.88;;;7.38;;
15327;SDS011;7764;51.430;6.840;2022-08-19T14:19:47;9.55;;;8.48;;
15327;SDS011;7764;51.430;6.840;2022-08-19T14:22:14;11.80;;;8.45;;
15327;SDS011;7764;51.430;6.840;2022-08-19T14:24:41;9.45;;;7.68;;
15327;SDS011;7764;51.430;6.840;2022-08-19T14:27:08;10.32;;;7.65;;
15327;SDS011;7764;51.430;6.840;2022-08-19T14:29:35;11.02;;;7.97;;
15327;SDS011;7764;51.430;6.840;2022-08-19T14:32:03;11.73;;;8.15;;
15327;SDS011;7764;51.430;6.840;2022-08-19T14:34:30;8.95;;;7.18;;
15327;SDS011;7764;51.430;6.840;2022-08-19T14:36:58;10.27;;;7.47;;
15327;SDS011;7764;51.430;6.840;2022-08-19T14:39:25;9.10;;;7.00;;
15327;SDS011;7764;51.430;6.840;2022-08-19T14:41:52;11.35;;;8.20;;
15327;SDS011;7764;51.430;6.840;2022-08-19T14:44:19;11.38;;;8.40;;
15327;SDS011;7764;51.430;6.840;2022-08-19T14:46:47;10.75;;;8.30;;
15327;SDS011;7764;51.430;6.840;2022-08-19T14:49:16;8.55;;;7.40;;
15327;SDS011;7764;51.430;6.840;2022-08-19T14:51:43;9.38;;;7.00;;